sensor_id;sensor_type;location;lat;lon;timestamp;pressure;altitude;pressure_sealevel;temperature;humidity
39411;BME280;26579;43.238;23.124;2022-07-06T00:01:57;96855.94;;;22.95;67.68
39411;BME280;26579;43.238;23.124;2022-07-06T00:04:23;96881.25;;;22.91;69.10
39411;BME280;26579;43.238;23.124;2022-07-06T00:06:49;96880.22;;;22.85;68.55
39411;BME280;26579;43.238;23.124;2022-07-06T00:09:14;96883.69;;;22.86;68.84
39411;BME280;26579;43.238;23.124;2022-07-06T00:11:40;96874.31;;;22.76;68.04
39411;BME280;26579;43.238;23.124;2022-07-06T00:14:06;96874.72;;;22.80;68.18
39411;BME280;26579;43.238;23.124;2022-07-06T00:16:32;96885.34;;;22.93;68.49
39411;BME280;26579;43.238;23.124;2022-07-06T00:18:58;96886.56;;;22.91;67.92
39411;BME280;26579;43.238;23.124;2022-07-06T00:21:23;96882.47;;;22.88;68.14
39411;BME280;26579;43.238;23.124;2022-07-06T00:23:49;96891.69;;;22.92;67.71
39411;BME280;26579;43.238;23.124;2022-07-06T00:26:15;96894.72;;;22.69;68.84
39411;BME280;26579;43.238;23.124;2022-07-06T00:28:41;96903.28;;;22.71;68.54
39411;BME280;26579;43.238;23.124;2022-07-06T00:31:07;96887.78;;;22.62;68.56
39411;BME280;26579;43.238;23.124;2022-07-06T00:33:32;96887.97;;;22.60;67.75
39411;BME280;26579;43.238;23.124;2022-07-06T00:35:58;96898.97;;;22.57;68.10
39411;BME280;26579;43.238;23.124;2022-07-06T00:38:24;96890.25;;;22.63;66.76
39411;BME280;26579;43.238;23.124;2022-07-06T00:40:50;96881.25;;;22.57;67.61
39411;BME280;26579;43.238;23.124;2022-07-06T00:43:15;96863.91;;;22.55;67.87
39411;BME280;26579;43.238;23.124;2022-07-06T00:45:41;96878.16;;;22.47;68.20
39411;BME280;26579;43.238;23.124;2022-07-06T00:48:07;96878.38;;;22.46;68.34
39411;BME280;26579;43.238;23.124;2022-07-06T00:50:33;96889.41;;;22.63;67.94
39411;BME280;26579;43.238;23.124;2022-07-06T00:53:02;96885.94;;;22.55;68.25
39411;BME280;26579;43.238;23.124;2022-07-06T00:55:29;96881.22;;;22.51;68.49
39411;BME280;26579;43.238;23.124;2022-07-06T00:57:57;96887.97;;;22.53;67.99
39411;BME280;26579;43.238;23.124;2022-07-06T01:00:25;96868.59;;;22.46;68.38
39411;BME280;26579;43.238;23.124;2022-07-06T01:02:52;96876.53;;;22.53;68.33
39411;BME280;26579;43.238;23.124;2022-07-06T01:05:18;96876.97;;;22.63;67.96
39411;BME280;26579;43.238;23.124;2022-07-06T01:07:46;96877.97;;;22.55;68.40
39411;BME280;26579;43.238;23.124;2022-07-06T01:10:13;96885.72;;;22.57;68.33
39411;BME280;26579;43.238;23.124;2022-07-06T01:12:42;96856.72;;;22.42;67.93
39411;BME280;26579;43.238;23.124;2022-07-06T01:15:10;96871.06;;;22.54;67.09
39411;BME280;26579;43.238;23.124;2022-07-06T01:17:39;96884.50;;;22.59;67.50
39411;BME280;26579;43.238;23.124;2022-07-06T01:22:33;96892.66;;;22.51;67.94
39411;BME280;26579;43.238;23.124;2022-07-06T01:24:59;96878.53;;;22.31;67.00
39411;BME280;26579;43.238;23.124;2022-07-06T01:27:25;96894.50;;;22.44;68.02
39411;BME280;26579;43.238;23.124;2022-07-06T01:29:50;96892.25;;;22.48;68.08
39411;BME280;26579;43.238;23.124;2022-07-06T01:32:16;96876.31;;;22.34;67.97
39411;BME280;26579;43.238;23.124;2022-07-06T01:34:42;96891.44;;;22.41;67.65
39411;BME280;26579;43.238;23.124;2022-07-06T01:37:07;96892.59;;;22.25;68.41
39411;BME280;26579;43.238;23.124;2022-07-06T01:39:33;96903.03;;;22.26;68.79
39411;BME280;26579;43.238;23.124;2022-07-06T01:41:59;96902.63;;;22.23;68.42
39411;BME280;26579;43.238;23.124;2022-07-06T01:44:24;96894.19;;;22.12;68.30
39411;BME280;26579;43.238;23.124;2022-07-06T01:46:50;96894.19;;;22.12;68.13
39411;BME280;26579;43.238;23.124;2022-07-06T01:49:16;96886.00;;;22.07;68.06
39411;BME280;26579;43.238;23.124;2022-07-06T01:51:41;96895.00;;;22.13;68.48
39411;BME280;26579;43.238;23.124;2022-07-06T01:54:08;96898.91;;;22.17;68.33
39411;BME280;26579;43.238;23.124;2022-07-06T01:56:34;96887.66;;;22.15;68.19
39411;BME280;26579;43.238;23.124;2022-07-06T01:59:02;96906.66;;;22.19;68.24
39411;BME280;26579;43.238;23.124;2022-07-06T02:01:28;96903.75;;;22.07;67.94
39411;BME280;26579;43.238;23.124;2022-07-06T02:03:54;96880.25;;;21.90;68.45
39411;BME280;26579;43.238;23.124;2022-07-06T02:06:20;96902.91;;;22.00;68.35
39411;BME280;26579;43.238;23.124;2022-07-06T02:08:48;96904.09;;;21.90;68.44
39411;BME280;26579;43.238;23.124;2022-07-06T02:11:13;96900.97;;;21.74;69.01
39411;BME280;26579;43.238;23.124;2022-07-06T02:13:40;96916.06;;;21.73;69.60
39411;BME280;26579;43.238;23.124;2022-07-06T02:16:10;96898.50;;;21.72;69.29
39411;BME280;26579;43.238;23.124;2022-07-06T02:18:36;96907.72;;;21.76;69.34
39411;BME280;26579;43.238;23.124;2022-07-06T02:21:01;96928.28;;;21.74;69.92
39411;BME280;26579;43.238;23.124;2022-07-06T02:23:27;96930.63;;;21.56;70.59
39411;BME280;26579;43.238;23.124;2022-07-06T02:25:53;96920.75;;;21.43;70.47
39411;BME280;26579;43.238;23.124;2022-07-06T02:28:20;96926.72;;;21.52;69.77
39411;BME280;26579;43.238;23.124;2022-07-06T02:30:46;96934.09;;;21.56;70.18
39411;BME280;26579;43.238;23.124;2022-07-06T02:33:12;96935.09;;;21.55;70.45
39411;BME280;26579;43.238;23.124;2022-07-06T02:35:37;96926.38;;;21.61;69.95
39411;BME280;26579;43.238;23.124;2022-07-06T02:38:03;96931.22;;;21.58;69.49
39411;BME280;26579;43.238;23.124;2022-07-06T02:40:30;96938.63;;;21.69;69.19
39411;BME280;26579;43.238;23.124;2022-07-06T02:42:56;96940.91;;;21.72;69.58
39411;BME280;26579;43.238;23.124;2022-07-06T02:45:22;96935.97;;;21.62;69.87
39411;BME280;26579;43.238;23.124;2022-07-06T02:47:48;96928.41;;;21.59;70.47
39411;BME280;26579;43.238;23.124;2022-07-06T02:50:14;96933.34;;;21.69;69.24
39411;BME280;26579;43.238;23.124;2022-07-06T02:52:40;96928.00;;;21.62;69.17
39411;BME280;26579;43.238;23.124;2022-07-06T02:55:06;96933.94;;;21.64;68.69
39411;BME280;26579;43.238;23.124;2022-07-06T02:57:32;96931.91;;;21.66;68.85
39411;BME280;26579;43.238;23.124;2022-07-06T02:59:59;96934.94;;;21.63;69.15
39411;BME280;26579;43.238;23.124;2022-07-06T03:02:24;96937.25;;;21.73;68.83
39411;BME280;26579;43.238;23.124;2022-07-06T03:07:16;96937.84;;;21.75;68.58
39411;BME280;26579;43.238;23.124;2022-07-06T03:09:43;96940.06;;;21.65;69.38
39411;BME280;26579;43.238;23.124;2022-07-06T03:12:09;96941.41;;;21.54;69.86
39411;BME280;26579;43.238;23.124;2022-07-06T03:14:35;96941.97;;;21.50;70.13
39411;BME280;26579;43.238;23.124;2022-07-06T03:17:01;96954.88;;;21.53;70.24
39411;BME280;26579;43.238;23.124;2022-07-06T03:19:26;96954.66;;;21.54;70.54
39411;BME280;26579;43.238;23.124;2022-07-06T03:21:52;96957.53;;;21.59;70.04
39411;BME280;26579;43.238;23.124;2022-07-06T03:24:19;96938.75;;;21.54;69.53
39411;BME280;26579;43.238;23.124;2022-07-06T03:26:44;96951.25;;;21.67;69.11
39411;BME280;26579;43.238;23.124;2022-07-06T03:29:12;96934.75;;;21.65;68.74
39411;BME280;26579;43.238;23.124;2022-07-06T03:31:38;96927.38;;;21.60;68.72
39411;BME280;26579;43.238;23.124;2022-07-06T03:34:04;96945.34;;;21.65;68.83
39411;BME280;26579;43.238;23.124;2022-07-06T03:36:30;96934.09;;;21.56;69.31
39411;BME280;26579;43.238;23.124;2022-07-06T03:38:55;96939.63;;;21.61;68.91
39411;BME280;26579;43.238;23.124;2022-07-06T03:41:22;96935.94;;;21.56;69.39
39411;BME280;26579;43.238;23.124;2022-07-06T03:43:48;96920.78;;;21.50;69.42
39411;BME280;26579;43.238;23.124;2022-07-06T03:46:14;96926.53;;;21.53;69.70
39411;BME280;26579;43.238;23.124;2022-07-06T03:48:39;96922.78;;;21.41;70.48
39411;BME280;26579;43.238;23.124;2022-07-06T03:51:06;96936.06;;;21.47;70.80
39411;BME280;26579;43.238;23.124;2022-07-06T03:53:32;96939.72;;;21.46;70.54
39411;BME280;26579;43.238;23.124;2022-07-06T03:55:59;96937.56;;;21.57;70.22
39411;BME280;26579;43.238;23.124;2022-07-06T03:58:24;96932.66;;;21.54;70.79
39411;BME280;26579;43.238;23.124;2022-07-06T04:00:51;96926.97;;;21.57;70.51
39411;BME280;26579;43.238;23.124;2022-07-06T04:03:17;96929.63;;;21.63;70.98
39411;BME280;26579;43.238;23.124;2022-07-06T04:05:47;96935.97;;;21.62;70.66
39411;BME280;26579;43.238;23.124;2022-07-06T04:08:13;96935.97;;;21.62;70.87
39411;BME280;26579;43.238;23.124;2022-07-06T04:10:44;96924.88;;;21.52;71.73
39411;BME280;26579;43.238;23.124;2022-07-06T04:13:10;96936.75;;;21.56;71.98
39411;BME280;26579;43.238;23.124;2022-07-06T04:15:36;96932.16;;;21.43;72.53
39411;BME280;26579;43.238;23.124;2022-07-06T04:18:02;96941.69;;;21.38;72.47
39411;BME280;26579;43.238;23.124;2022-07-06T04:20:32;96928.69;;;21.43;72.96
39411;BME280;26579;43.238;23.124;2022-07-06T04:22:58;96945.34;;;21.65;72.97
39411;BME280;26579;43.238;23.124;2022-07-06T04:25:25;96942.47;;;21.60;73.28
39411;BME280;26579;43.238;23.124;2022-07-06T04:27:51;96940.66;;;21.67;72.68
39411;BME280;26579;43.238;23.124;2022-07-06T04:30:17;96949.75;;;21.86;72.54
39411;BME280;26579;43.238;23.124;2022-07-06T04:32:43;96937.31;;;21.93;71.59
39411;BME280;26579;43.238;23.124;2022-07-06T04:35:09;96959.81;;;22.04;71.76
39411;BME280;26579;43.238;23.124;2022-07-06T04:37:35;96947.38;;;22.04;71.66
39411;BME280;26579;43.238;23.124;2022-07-06T04:40:01;96944.72;;;22.04;71.64
39411;BME280;26579;43.238;23.124;2022-07-06T04:42:28;96958.06;;;22.24;71.72
39411;BME280;26579;43.238;23.124;2022-07-06T04:44:54;96954.84;;;22.35;72.11
39411;BME280;26579;43.238;23.124;2022-07-06T04:47:20;96941.59;;;22.42;72.32
39411;BME280;26579;43.238;23.124;2022-07-06T04:49:46;96954.69;;;22.57;71.78
39411;BME280;26579;43.238;23.124;2022-07-06T04:52:13;96952.25;;;22.69;72.65
39411;BME280;26579;43.238;23.124;2022-07-06T04:54:39;96957.19;;;22.78;72.07
39411;BME280;26579;43.238;23.124;2022-07-06T04:57:04;96965.38;;;22.90;71.60
39411;BME280;26579;43.238;23.124;2022-07-06T04:59:31;96957.81;;;22.87;72.25
39411;BME280;26579;43.238;23.124;2022-07-06T05:01:58;96979.88;;;22.94;71.52
39411;BME280;26579;43.238;23.124;2022-07-06T05:04:24;96981.56;;;22.95;72.80
39411;BME280;26579;43.238;23.124;2022-07-06T05:06:50;96961.88;;;22.83;73.09
39411;BME280;26579;43.238;23.124;2022-07-06T05:09:16;96983.59;;;23.00;72.78
39411;BME280;26579;43.238;23.124;2022-07-06T05:11:43;96986.25;;;23.00;73.16
39411;BME280;26579;43.238;23.124;2022-07-06T05:14:09;96993.38;;;22.99;73.59
39411;BME280;26579;43.238;23.124;2022-07-06T05:16:35;96987.66;;;23.09;74.00
39411;BME280;26579;43.238;23.124;2022-07-06T05:19:00;96992.78;;;23.11;73.53
39411;BME280;26579;43.238;23.124;2022-07-06T05:21:28;97009.94;;;23.15;72.28
39411;BME280;26579;43.238;23.124;2022-07-06T05:23:53;97001.56;;;23.11;72.55
39411;BME280;26579;43.238;23.124;2022-07-06T05:26:19;96985.25;;;23.01;71.22
39411;BME280;26579;43.238;23.124;2022-07-06T05:28:46;96996.69;;;23.21;71.22
39411;BME280;26579;43.238;23.124;2022-07-06T05:31:15;96998.09;;;23.24;71.55
39411;BME280;26579;43.238;23.124;2022-07-06T05:33:40;97004.84;;;23.33;70.99
39411;BME280;26579;43.238;23.124;2022-07-06T05:36:07;97007.91;;;23.37;71.66
39411;BME280;26579;43.238;23.124;2022-07-06T05:38:33;96998.94;;;23.31;71.99
39411;BME280;26579;43.238;23.124;2022-07-06T05:40:59;97007.91;;;23.37;71.20
39411;BME280;26579;43.238;23.124;2022-07-06T05:43:25;97007.72;;;23.45;70.58
39411;BME280;26579;43.238;23.124;2022-07-06T05:45:52;97014.25;;;23.62;71.10
39411;BME280;26579;43.238;23.124;2022-07-06T05:48:20;97013.22;;;23.77;69.30
39411;BME280;26579;43.238;23.124;2022-07-06T05:50:46;97021.59;;;23.73;69.87
39411;BME280;26579;43.238;23.124;2022-07-06T05:53:12;97022.19;;;23.82;68.95
39411;BME280;26579;43.238;23.124;2022-07-06T05:55:38;97012.81;;;23.73;68.22
39411;BME280;26579;43.238;23.124;2022-07-06T05:58:03;97017.47;;;23.91;69.26
39411;BME280;26579;43.238;23.124;2022-07-06T06:00:31;97011.97;;;23.92;68.33
39411;BME280;26579;43.238;23.124;2022-07-06T06:03:02;97016.84;;;24.09;69.22
39411;BME280;26579;43.238;23.124;2022-07-06T06:05:29;97018.63;;;24.22;69.91
39411;BME280;26579;43.238;23.124;2022-07-06T06:08:01;97002.03;;;24.26;68.83
39411;BME280;26579;43.238;23.124;2022-07-06T06:10:28;97017.75;;;24.41;67.74
39411;BME280;26579;43.238;23.124;2022-07-06T06:12:57;97004.63;;;24.46;67.18
39411;BME280;26579;43.238;23.124;2022-07-06T06:15:23;97000.97;;;24.40;66.73
39411;BME280;26579;43.238;23.124;2022-07-06T06:17:49;97014.56;;;24.71;66.64
39411;BME280;26579;43.238;23.124;2022-07-06T06:20:15;97009.19;;;24.77;65.38
39411;BME280;26579;43.238;23.124;2022-07-06T06:25:10;97018.72;;;24.53;64.15
39411;BME280;26579;43.238;23.124;2022-07-06T06:27:36;97015.69;;;24.43;64.70
39411;BME280;26579;43.238;23.124;2022-07-06T06:30:02;97017.94;;;24.39;64.71
39411;BME280;26579;43.238;23.124;2022-07-06T06:32:27;97011.81;;;24.39;64.05
39411;BME280;26579;43.238;23.124;2022-07-06T06:34:53;97003.44;;;24.29;64.21
39411;BME280;26579;43.238;23.124;2022-07-06T06:37:19;97014.91;;;24.29;64.35
39411;BME280;26579;43.238;23.124;2022-07-06T06:39:44;97008.56;;;24.30;64.61
39411;BME280;26579;43.238;23.124;2022-07-06T06:42:10;97018.56;;;24.42;64.94
39411;BME280;26579;43.238;23.124;2022-07-06T06:44:42;97012.22;;;24.36;64.64
39411;BME280;26579;43.238;23.124;2022-07-06T06:47:08;97009.75;;;24.41;63.07
39411;BME280;26579;43.238;23.124;2022-07-06T06:49:34;97007.28;;;24.39;62.83
39411;BME280;26579;43.238;23.124;2022-07-06T06:51:59;96996.63;;;24.46;62.15
39411;BME280;26579;43.238;23.124;2022-07-06T06:54:25;97009.94;;;24.53;62.36
39411;BME280;26579;43.238;23.124;2022-07-06T06:56:51;97012.38;;;24.54;61.76
39411;BME280;26579;43.238;23.124;2022-07-06T06:59:17;97003.16;;;24.57;62.38
39411;BME280;26579;43.238;23.124;2022-07-06T07:01:42;97000.72;;;24.55;60.46
39411;BME280;26579;43.238;23.124;2022-07-06T07:04:08;97013.22;;;24.48;62.27
39411;BME280;26579;43.238;23.124;2022-07-06T07:06:34;96989.50;;;24.47;63.03
39411;BME280;26579;43.238;23.124;2022-07-06T07:09:00;97002.72;;;24.60;61.16
39411;BME280;26579;43.238;23.124;2022-07-06T07:11:25;97000.50;;;24.57;62.80
39411;BME280;26579;43.238;23.124;2022-07-06T07:13:51;97004.03;;;24.44;61.82
39411;BME280;26579;43.238;23.124;2022-07-06T07:16:17;96992.78;;;24.35;63.59
39411;BME280;26579;43.238;23.124;2022-07-06T07:18:42;97006.41;;;24.59;61.77
39411;BME280;26579;43.238;23.124;2022-07-06T07:21:08;96992.06;;;24.60;61.61
39411;BME280;26579;43.238;23.124;2022-07-06T07:23:34;97003.56;;;24.54;61.40
39411;BME280;26579;43.238;23.124;2022-07-06T07:25:59;97001.16;;;24.46;65.17
39411;BME280;26579;43.238;23.124;2022-07-06T07:28:25;97004.66;;;24.33;66.55
39411;BME280;26579;43.238;23.124;2022-07-06T07:30:51;97006.91;;;24.43;65.13
39411;BME280;26579;43.238;23.124;2022-07-06T07:33:17;96996.63;;;24.46;64.21
39411;BME280;26579;43.238;23.124;2022-07-06T07:35:42;97003.56;;;24.54;66.36
39411;BME280;26579;43.238;23.124;2022-07-06T07:38:08;97004.19;;;24.56;67.67
39411;BME280;26579;43.238;23.124;2022-07-06T07:40:34;96997.16;;;24.68;67.03
39411;BME280;26579;43.238;23.124;2022-07-06T07:43:00;96998.91;;;24.81;66.65
39411;BME280;26579;43.238;23.124;2022-07-06T07:45:25;97005.47;;;25.10;66.38
39411;BME280;26579;43.238;23.124;2022-07-06T07:47:51;96984.41;;;25.34;64.83
39411;BME280;26579;43.238;23.124;2022-07-06T07:50:17;96986.25;;;25.58;63.74
39411;BME280;26579;43.238;23.124;2022-07-06T07:52:43;96981.91;;;25.64;61.87
39411;BME280;26579;43.238;23.124;2022-07-06T07:55:09;96983.78;;;25.82;61.13
39411;BME280;26579;43.238;23.124;2022-07-06T07:57:35;96990.25;;;25.92;59.57
39411;BME280;26579;43.238;23.124;2022-07-06T08:00:02;96983.16;;;25.86;58.25
39411;BME280;26579;43.238;23.124;2022-07-06T08:02:37;96978.00;;;25.66;57.62
39411;BME280;26579;43.238;23.124;2022-07-06T08:05:04;96983.03;;;25.74;58.34
39411;BME280;26579;43.238;23.124;2022-07-06T08:07:29;96989.56;;;25.79;56.91
39411;BME280;26579;43.238;23.124;2022-07-06T08:09:55;96981.94;;;25.82;56.52
39411;BME280;26579;43.238;23.124;2022-07-06T08:12:21;96990.34;;;26.04;57.53
39411;BME280;26579;43.238;23.124;2022-07-06T08:14:47;96992.13;;;26.10;54.74
39411;BME280;26579;43.238;23.124;2022-07-06T08:17:13;96978.41;;;26.07;51.70
39411;BME280;26579;43.238;23.124;2022-07-06T08:19:39;96988.69;;;26.22;50.26
39411;BME280;26579;43.238;23.124;2022-07-06T08:22:04;96994.00;;;26.40;50.10
39411;BME280;26579;43.238;23.124;2022-07-06T08:24:30;96991.59;;;26.38;49.71
39411;BME280;26579;43.238;23.124;2022-07-06T08:26:56;96980.41;;;26.30;50.54
39411;BME280;26579;43.238;23.124;2022-07-06T08:29:21;96990.69;;;26.45;50.46
39411;BME280;26579;43.238;23.124;2022-07-06T08:31:47;96987.56;;;26.48;49.40
39411;BME280;26579;43.238;23.124;2022-07-06T08:34:13;96987.53;;;26.66;50.76
39411;BME280;26579;43.238;23.124;2022-07-06T08:36:38;96994.47;;;26.85;50.46
39411;BME280;26579;43.238;23.124;2022-07-06T08:39:04;96984.41;;;27.11;49.94
39411;BME280;26579;43.238;23.124;2022-07-06T08:41:30;96987.53;;;27.08;48.06
39411;BME280;26579;43.238;23.124;2022-07-06T08:43:56;96981.34;;;26.96;48.04
39411;BME280;26579;43.238;23.124;2022-07-06T08:46:22;96981.59;;;26.94;48.55
39411;BME280;26579;43.238;23.124;2022-07-06T08:48:48;96980.22;;;27.03;47.95
39411;BME280;26579;43.238;23.124;2022-07-06T08:51:15;96980.03;;;27.28;47.96
39411;BME280;26579;43.238;23.124;2022-07-06T08:53:42;96987.16;;;27.35;48.26
39411;BME280;26579;43.238;23.124;2022-07-06T08:56:08;96973.88;;;27.16;47.16
39411;BME280;26579;43.238;23.124;2022-07-06T08:58:34;96977.88;;;26.95;47.80
39411;BME280;26579;43.238;23.124;2022-07-06T09:01:00;96972.38;;;26.90;48.48
39411;BME280;26579;43.238;23.124;2022-07-06T09:03:27;96976.56;;;26.86;48.08
39411;BME280;26579;43.238;23.124;2022-07-06T09:05:58;96985.16;;;26.76;52.75
39411;BME280;26579;43.238;23.124;2022-07-06T09:08:26;96972.22;;;26.73;54.20
39411;BME280;26579;43.238;23.124;2022-07-06T09:10:55;96976.69;;;26.79;53.43
39411;BME280;26579;43.238;23.124;2022-07-06T09:13:20;96988.38;;;26.78;51.80
39411;BME280;26579;43.238;23.124;2022-07-06T09:15:46;96985.06;;;26.64;52.29
39411;BME280;26579;43.238;23.124;2022-07-06T09:18:12;96987.06;;;26.39;52.61
39411;BME280;26579;43.238;23.124;2022-07-06T09:20:37;96987.66;;;26.23;53.16
39411;BME280;26579;43.238;23.124;2022-07-06T09:23:06;96989.50;;;26.22;53.87
39411;BME280;26579;43.238;23.124;2022-07-06T09:25:32;96982.22;;;26.48;54.48
39411;BME280;26579;43.238;23.124;2022-07-06T09:27:59;96963.81;;;26.58;54.65
39411;BME280;26579;43.238;23.124;2022-07-06T09:30:25;96989.72;;;26.99;53.13
39411;BME280;26579;43.238;23.124;2022-07-06T09:32:55;96991.78;;;27.16;52.38
39411;BME280;26579;43.238;23.124;2022-07-06T09:35:28;96994.88;;;27.13;51.74
39411;BME280;26579;43.238;23.124;2022-07-06T09:38:01;96987.16;;;27.23;51.48
39411;BME280;26579;43.238;23.124;2022-07-06T09:40:29;96988.41;;;27.20;51.37
39411;BME280;26579;43.238;23.124;2022-07-06T09:45:37;96987.50;;;27.38;52.36
39411;BME280;26579;43.238;23.124;2022-07-06T09:48:09;96979.63;;;27.55;50.28
39411;BME280;26579;43.238;23.124;2022-07-06T09:50:43;96977.75;;;27.79;50.17
39411;BME280;26579;43.238;23.124;2022-07-06T09:53:10;96970.06;;;27.94;49.42
39411;BME280;26579;43.238;23.124;2022-07-06T09:55:36;96962.25;;;28.05;49.96
39411;BME280;26579;43.238;23.124;2022-07-06T09:58:03;96973.50;;;28.18;48.04
39411;BME280;26579;43.238;23.124;2022-07-06T10:00:28;96973.53;;;28.07;49.10
39411;BME280;26579;43.238;23.124;2022-07-06T10:02:54;96960.53;;;27.98;48.05
39411;BME280;26579;43.238;23.124;2022-07-06T10:05:21;96963.66;;;27.60;48.76
39411;BME280;26579;43.238;23.124;2022-07-06T10:07:49;96953.34;;;27.52;51.09
39411;BME280;26579;43.238;23.124;2022-07-06T10:10:15;96965.78;;;27.58;49.15
39411;BME280;26579;43.238;23.124;2022-07-06T10:12:43;96950.66;;;27.40;50.25
39411;BME280;26579;43.238;23.124;2022-07-06T10:15:10;96959.25;;;27.30;50.00
39411;BME280;26579;43.238;23.124;2022-07-06T10:17:38;96954.25;;;27.46;52.37
39411;BME280;26579;43.238;23.124;2022-07-06T10:20:06;96958.78;;;27.45;50.49
39411;BME280;26579;43.238;23.124;2022-07-06T10:22:34;96965.66;;;27.41;50.54
39411;BME280;26579;43.238;23.124;2022-07-06T10:25:01;96975.88;;;27.21;50.19
39411;BME280;26579;43.238;23.124;2022-07-06T10:27:28;96969.19;;;27.00;50.55
39411;BME280;26579;43.238;23.124;2022-07-06T10:29:54;96965.84;;;26.74;50.99
39411;BME280;26579;43.238;23.124;2022-07-06T10:32:21;96962.56;;;26.60;50.36
39411;BME280;26579;43.238;23.124;2022-07-06T10:34:47;96958.97;;;26.36;50.67
39411;BME280;26579;43.238;23.124;2022-07-06T10:37:27;96942.00;;;26.31;52.60
39411;BME280;26579;43.238;23.124;2022-07-06T10:39:53;96967.19;;;26.53;54.33
39411;BME280;26579;43.238;23.124;2022-07-06T10:42:40;96970.72;;;26.47;52.78
39411;BME280;26579;43.238;23.124;2022-07-06T10:45:06;96966.41;;;26.46;53.38
39411;BME280;26579;43.238;23.124;2022-07-06T10:47:32;96971.16;;;26.44;54.32
39411;BME280;26579;43.238;23.124;2022-07-06T10:50:00;96965.25;;;26.42;54.62
39411;BME280;26579;43.238;23.124;2022-07-06T10:52:48;96978.13;;;26.45;54.19
39411;BME280;26579;43.238;23.124;2022-07-06T10:55:35;96968.16;;;26.22;56.24
39411;BME280;26579;43.238;23.124;2022-07-06T10:58:02;96971.50;;;26.17;56.18
39411;BME280;26579;43.238;23.124;2022-07-06T11:00:48;96984.38;;;26.20;56.23
39411;BME280;26579;43.238;23.124;2022-07-06T11:03:40;96983.88;;;26.12;57.35
39411;BME280;26579;43.238;23.124;2022-07-06T11:06:20;96985.81;;;26.05;58.79
39411;BME280;26579;43.238;23.124;2022-07-06T11:08:59;96988.03;;;25.89;59.44
39411;BME280;26579;43.238;23.124;2022-07-06T11:11:38;97003.50;;;25.56;62.48
39411;BME280;26579;43.238;23.124;2022-07-06T11:14:17;97001.72;;;25.74;65.80
39411;BME280;26579;43.238;23.124;2022-07-06T11:19:20;96987.06;;;25.59;65.97
39411;BME280;26579;43.238;23.124;2022-07-06T11:21:49;96988.66;;;25.66;64.91
39411;BME280;26579;43.238;23.124;2022-07-06T11:24:21;96970.28;;;25.58;65.01
39411;BME280;26579;43.238;23.124;2022-07-06T11:26:49;96969.63;;;25.63;63.10
39411;BME280;26579;43.238;23.124;2022-07-06T11:29:20;96975.97;;;25.62;63.57
39411;BME280;26579;43.238;23.124;2022-07-06T11:31:47;96979.16;;;25.52;64.91
39411;BME280;26579;43.238;23.124;2022-07-06T11:34:23;96975.75;;;25.63;65.02
39411;BME280;26579;43.238;23.124;2022-07-06T11:36:58;96975.31;;;25.66;65.17
39411;BME280;26579;43.238;23.124;2022-07-06T11:39:35;96977.09;;;25.54;63.09
39411;BME280;26579;43.238;23.124;2022-07-06T11:42:02;96980.38;;;25.74;62.27
39411;BME280;26579;43.238;23.124;2022-07-06T11:44:28;96983.97;;;25.80;62.92
39411;BME280;26579;43.238;23.124;2022-07-06T11:46:54;96979.78;;;25.72;63.84
39411;BME280;26579;43.238;23.124;2022-07-06T11:49:20;96966.38;;;25.79;62.49
39411;BME280;26579;43.238;23.124;2022-07-06T11:51:48;96972.19;;;26.13;61.66
39411;BME280;26579;43.238;23.124;2022-07-06T11:54:19;96967.91;;;26.60;62.07
39411;BME280;26579;43.238;23.124;2022-07-06T11:56:58;96977.72;;;26.90;57.16
39411;BME280;26579;43.238;23.124;2022-07-06T11:59:30;96968.72;;;27.03;53.33
39411;BME280;26579;43.238;23.124;2022-07-06T12:04:32;96961.31;;;27.28;55.72
39411;BME280;26579;43.238;23.124;2022-07-06T12:07:07;96969.38;;;27.52;53.22
39411;BME280;26579;43.238;23.124;2022-07-06T12:09:36;96961.47;;;27.57;52.96
39411;BME280;26579;43.238;23.124;2022-07-06T12:12:03;96953.78;;;27.72;52.09
39411;BME280;26579;43.238;23.124;2022-07-06T12:14:32;96965.41;;;27.78;52.55
39411;BME280;26579;43.238;23.124;2022-07-06T12:17:08;96953.06;;;27.77;52.33
39411;BME280;26579;43.238;23.124;2022-07-06T12:19:35;96952.41;;;27.82;53.09
39411;BME280;26579;43.238;23.124;2022-07-06T12:22:02;96959.91;;;28.08;53.09
39411;BME280;26579;43.238;23.124;2022-07-06T12:24:29;96954.09;;;28.11;53.18
39411;BME280;26579;43.238;23.124;2022-07-06T12:26:55;96952.38;;;27.93;51.41
39411;BME280;26579;43.238;23.124;2022-07-06T12:29:21;96945.16;;;28.06;50.89
39411;BME280;26579;43.238;23.124;2022-07-06T12:31:51;96959.03;;;28.43;52.80
39411;BME280;26579;43.238;23.124;2022-07-06T12:34:22;96955.22;;;28.56;49.60
39411;BME280;26579;43.238;23.124;2022-07-06T12:36:56;96942.09;;;28.54;49.52
39411;BME280;26579;43.238;23.124;2022-07-06T12:39:28;96948.91;;;28.33;47.80
39411;BME280;26579;43.238;23.124;2022-07-06T12:42:00;96947.03;;;28.46;49.31
39411;BME280;26579;43.238;23.124;2022-07-06T12:44:26;96936.84;;;28.19;47.84
39411;BME280;26579;43.238;23.124;2022-07-06T12:47:06;96938.22;;;28.21;48.52
39411;BME280;26579;43.238;23.124;2022-07-06T12:49:33;96943.56;;;28.33;49.20
39411;BME280;26579;43.238;23.124;2022-07-06T12:54:30;96933.41;;;28.35;48.82
39411;BME280;26579;43.238;23.124;2022-07-06T12:59:27;96933.78;;;28.27;47.69
39411;BME280;26579;43.238;23.124;2022-07-06T13:01:54;96919.59;;;28.27;47.37
39411;BME280;26579;43.238;23.124;2022-07-06T13:04:20;96915.94;;;28.44;47.22
39411;BME280;26579;43.238;23.124;2022-07-06T13:06:45;96898.09;;;28.50;48.14
39411;BME280;26579;43.238;23.124;2022-07-06T13:09:11;96922.00;;;28.69;46.40
39411;BME280;26579;43.238;23.124;2022-07-06T13:11:37;96912.91;;;28.70;46.60